sensor_id;sensor_type;location;lat;lon;timestamp;P1;durP1;ratioP1;P2;durP2;ratioP2
19038;SDS011;9652;49.014;12.052;2024-03-02T00:00:50;30.00;;;18.00;;
19038;SDS011;9652;49.014;12.052;2024-03-02T00:03:18;32.60;;;17.80;;
19038;SDS011;9652;49.014;12.052;2024-03-02T00:05:48;30.17;;;17.10;;
19038;SDS011;9652;49.014;12.052;2024-03-02T00:08:21;36.57;;;17.03;;
19038;SDS011;9652;49.014;12.052;2024-03-02T00:10:52;28.87;;;17.07;;
19038;SDS011;9652;49.014;12.052;2024-03-02T00:13:23;27.83;;;15.23;;
19038;SDS011;9652;49.014;12.052;2024-03-02T00:15:51;27.17;;;15.13;;
19038;SDS011;9652;49.014;12.052;2024-03-02T00:18:21;26.80;;;15.50;;
19038;SDS011;9652;49.014;12.052;2024-03-02T00:20:53;28.63;;;15.73;;
19038;SDS011;9652;49.014;12.052;2024-03-02T00:23:23;23.47;;;13.90;;
19038;SDS011;9652;49.014;12.052;2024-03-02T00:25:54;24.50;;;13.43;;
19038;SDS011;9652;49.014;12.052;2024-03-02T00:28:22;25.10;;;15.00;;
19038;SDS011;9652;49.014;12.052;2024-03-02T00:30:57;27.83;;;14.33;;
19038;SDS011;9652;49.014;12.052;2024-03-02T00:33:30;24.80;;;14.33;;
19038;SDS011;9652;49.014;12.052;2024-03-02T00:35:59;23.97;;;14.13;;
19038;SDS011;9652;49.014;12.052;2024-03-02T00:38:30;29.10;;;14.90;;
19038;SDS011;9652;49.014;12.052;2024-03-02T00:40:58;27.47;;;16.13;;
19038;SDS011;9652;49.014;12.052;2024-03-02T00:46:29;23.50;;;13.20;;
19038;SDS011;9652;49.014;12.052;2024-03-02T00:48:59;24.77;;;14.13;;
19038;SDS011;9652;49.014;12.052;2024-03-02T00:51:29;28.60;;;16.13;;
19038;SDS011;9652;49.014;12.052;2024-03-02T00:54:00;24.47;;;13.67;;
19038;SDS011;9652;49.014;12.052;2024-03-02T00:56:30;25.63;;;14.97;;
19038;SDS011;9652;49.014;12.052;2024-03-02T00:58:58;26.13;;;14.10;;
19038;SDS011;9652;49.014;12.052;2024-03-02T01:01:26;27.10;;;15.03;;
19038;SDS011;9652;49.014;12.052;2024-03-02T01:03:53;26.23;;;13.90;;
19038;SDS011;9652;49.014;12.052;2024-03-02T01:06:20;31.63;;;14.43;;
19038;SDS011;9652;49.014;12.052;2024-03-02T01:08:48;26.33;;;14.93;;
19038;SDS011;9652;49.014;12.052;2024-03-02T01:11:17;27.77;;;15.93;;
19038;SDS011;9652;49.014;12.052;2024-03-02T01:13:47;29.80;;;16.67;;
19038;SDS011;9652;49.014;12.052;2024-03-02T01:16:14;26.57;;;15.10;;
19038;SDS011;9652;49.014;12.052;2024-03-02T01:18:41;25.33;;;15.23;;
19038;SDS011;9652;49.014;12.052;2024-03-02T01:21:09;28.27;;;15.57;;
19038;SDS011;9652;49.014;12.052;2024-03-02T01:23:36;29.47;;;16.80;;
19038;SDS011;9652;49.014;12.052;2024-03-02T01:26:03;30.23;;;15.73;;
19038;SDS011;9652;49.014;12.052;2024-03-02T01:28:32;23.63;;;13.07;;
19038;SDS011;9652;49.014;12.052;2024-03-02T01:30:59;22.77;;;14.43;;
19038;SDS011;9652;49.014;12.052;2024-03-02T01:33:27;25.63;;;13.20;;
19038;SDS011;9652;49.014;12.052;2024-03-02T01:35:54;25.53;;;14.13;;
19038;SDS011;9652;49.014;12.052;2024-03-02T01:38:21;23.43;;;13.97;;
19038;SDS011;9652;49.014;12.052;2024-03-02T01:40:48;27.07;;;14.43;;
19038;SDS011;9652;49.014;12.052;2024-03-02T01:43:15;21.77;;;13.17;;
19038;SDS011;9652;49.014;12.052;2024-03-02T01:45:43;25.37;;;13.30;;
19038;SDS011;9652;49.014;12.052;2024-03-02T01:48:11;23.27;;;13.77;;
19038;SDS011;9652;49.014;12.052;2024-03-02T01:50:38;25.33;;;13.17;;
19038;SDS011;9652;49.014;12.052;2024-03-02T01:53:05;23.70;;;14.07;;
19038;SDS011;9652;49.014;12.052;2024-03-02T01:55:34;20.73;;;12.60;;
19038;SDS011;9652;49.014;12.052;2024-03-02T01:58:02;26.03;;;14.63;;
19038;SDS011;9652;49.014;12.052;2024-03-02T02:00:30;24.27;;;14.73;;
19038;SDS011;9652;49.014;12.052;2024-03-02T02:02:58;23.17;;;13.70;;
19038;SDS011;9652;49.014;12.052;2024-03-02T02:05:26;27.67;;;14.70;;
19038;SDS011;9652;49.014;12.052;2024-03-02T02:07:53;24.67;;;14.40;;
19038;SDS011;9652;49.014;12.052;2024-03-02T02:10:20;22.23;;;13.67;;
19038;SDS011;9652;49.014;12.052;2024-03-02T02:12:47;24.17;;;13.63;;
19038;SDS011;9652;49.014;12.052;2024-03-02T02:15:24;26.37;;;13.77;;
19038;SDS011;9652;49.014;12.052;2024-03-02T02:17:53;23.00;;;14.10;;
19038;SDS011;9652;49.014;12.052;2024-03-02T02:20:21;23.47;;;13.37;;
19038;SDS011;9652;49.014;12.052;2024-03-02T02:22:57;22.77;;;13.60;;
19038;SDS011;9652;49.014;12.052;2024-03-02T02:25:25;22.30;;;12.73;;
19038;SDS011;9652;49.014;12.052;2024-03-02T02:27:53;22.63;;;12.60;;
19038;SDS011;9652;49.014;12.052;2024-03-02T02:30:21;24.03;;;13.37;;
19038;SDS011;9652;49.014;12.052;2024-03-02T02:32:52;23.63;;;14.10;;
19038;SDS011;9652;49.014;12.052;2024-03-02T02:35:19;23.00;;;13.43;;
19038;SDS011;9652;49.014;12.052;2024-03-02T02:37:47;22.47;;;13.60;;
19038;SDS011;9652;49.014;12.052;2024-03-02T02:40:17;26.70;;;13.60;;
19038;SDS011;9652;49.014;12.052;2024-03-02T02:42:45;25.47;;;15.17;;
19038;SDS011;9652;49.014;12.052;2024-03-02T02:45:12;24.83;;;14.40;;
19038;SDS011;9652;49.014;12.052;2024-03-02T02:47:40;26.80;;;14.93;;
19038;SDS011;9652;49.014;12.052;2024-03-02T02:50:08;22.33;;;12.33;;
19038;SDS011;9652;49.014;12.052;2024-03-02T02:52:37;23.77;;;13.70;;
19038;SDS011;9652;49.014;12.052;2024-03-02T02:55:06;22.60;;;12.53;;
19038;SDS011;9652;49.014;12.052;2024-03-02T02:57:36;21.73;;;13.30;;
19038;SDS011;9652;49.014;12.052;2024-03-02T03:00:07;20.60;;;12.73;;
19038;SDS011;9652;49.014;12.052;2024-03-02T03:02:39;17.73;;;11.73;;
19038;SDS011;9652;49.014;12.052;2024-03-02T03:05:08;21.30;;;12.23;;
19038;SDS011;9652;49.014;12.052;2024-03-02T03:07:36;23.30;;;13.80;;
19038;SDS011;9652;49.014;12.052;2024-03-02T03:10:05;22.40;;;12.73;;
19038;SDS011;9652;49.014;12.052;2024-03-02T03:12:35;20.80;;;12.87;;
19038;SDS011;9652;49.014;12.052;2024-03-02T03:15:03;23.67;;;13.27;;
19038;SDS011;9652;49.014;12.052;2024-03-02T03:17:32;19.67;;;12.10;;
19038;SDS011;9652;49.014;12.052;2024-03-02T03:19:59;20.77;;;12.27;;
19038;SDS011;9652;49.014;12.052;2024-03-02T03:22:27;25.77;;;13.80;;
19038;SDS011;9652;49.014;12.052;2024-03-02T03:24:54;22.63;;;12.97;;
19038;SDS011;9652;49.014;12.052;2024-03-02T03:27:22;22.93;;;12.63;;
19038;SDS011;9652;49.014;12.052;2024-03-02T03:29:50;23.37;;;13.27;;
19038;SDS011;9652;49.014;12.052;2024-03-02T03:32:17;20.83;;;11.73;;
19038;SDS011;9652;49.014;12.052;2024-03-02T03:34:44;20.37;;;13.03;;
19038;SDS011;9652;49.014;12.052;2024-03-02T03:37:13;23.97;;;14.20;;
19038;SDS011;9652;49.014;12.052;2024-03-02T03:39:40;20.80;;;13.27;;
19038;SDS011;9652;49.014;12.052;2024-03-02T03:42:07;24.63;;;14.90;;
19038;SDS011;9652;49.014;12.052;2024-03-02T03:44:34;22.50;;;13.50;;
19038;SDS011;9652;49.014;12.052;2024-03-02T03:47:03;21.20;;;13.30;;
19038;SDS011;9652;49.014;12.052;2024-03-02T03:49:30;24.77;;;14.70;;
19038;SDS011;9652;49.014;12.052;2024-03-02T03:51:57;23.47;;;13.27;;
19038;SDS011;9652;49.014;12.052;2024-03-02T03:54:25;26.77;;;15.13;;
19038;SDS011;9652;49.014;12.052;2024-03-02T03:56:52;24.37;;;14.47;;
19038;SDS011;9652;49.014;12.052;2024-03-02T03:59:19;24.80;;;14.13;;
19038;SDS011;9652;49.014;12.052;2024-03-02T04:01:46;27.67;;;15.47;;
19038;SDS011;9652;49.014;12.052;2024-03-02T04:04:15;27.73;;;14.90;;
19038;SDS011;9652;49.014;12.052;2024-03-02T04:06:42;25.50;;;15.07;;
19038;SDS011;9652;49.014;12.052;2024-03-02T04:09:09;24.87;;;14.80;;
19038;SDS011;9652;49.014;12.052;2024-03-02T04:11:36;23.83;;;14.47;;
19038;SDS011;9652;49.014;12.052;2024-03-02T04:14:03;28.47;;;14.57;;
19038;SDS011;9652;49.014;12.052;2024-03-02T04:16:31;28.27;;;14.30;;
19038;SDS011;9652;49.014;12.052;2024-03-02T04:18:58;29.63;;;16.73;;
19038;SDS011;9652;49.014;12.052;2024-03-02T04:21:26;26.60;;;14.27;;
19038;SDS011;9652;49.014;12.052;2024-03-02T04:23:53;23.00;;;13.13;;
19038;SDS011;9652;49.014;12.052;2024-03-02T04:26:23;27.73;;;14.60;;
19038;SDS011;9652;49.014;12.052;2024-03-02T04:28:50;22.80;;;13.90;;
19038;SDS011;9652;49.014;12.052;2024-03-02T04:31:18;22.20;;;13.67;;
19038;SDS011;9652;49.014;12.052;2024-03-02T04:33:45;25.47;;;13.17;;
19038;SDS011;9652;49.014;12.052;2024-03-02T04:36:12;23.60;;;13.50;;
19038;SDS011;9652;49.014;12.052;2024-03-02T04:38:40;26.70;;;14.00;;
19038;SDS011;9652;49.014;12.052;2024-03-02T04:41:07;24.93;;;14.37;;
19038;SDS011;9652;49.014;12.052;2024-03-02T04:43:35;23.30;;;12.87;;
19038;SDS011;9652;49.014;12.052;2024-03-02T04:46:02;22.17;;;13.70;;
19038;SDS011;9652;49.014;12.052;2024-03-02T04:48:29;23.17;;;12.43;;
19038;SDS011;9652;49.014;12.052;2024-03-02T04:50:57;24.93;;;14.23;;
19038;SDS011;9652;49.014;12.052;2024-03-02T04:53:24;25.07;;;13.37;;
19038;SDS011;9652;49.014;12.052;2024-03-02T04:55:52;22.73;;;12.73;;
19038;SDS011;9652;49.014;12.052;2024-03-02T04:58:52;25.73;;;14.10;;
19038;SDS011;9652;49.014;12.052;2024-03-02T05:01:19;21.90;;;13.60;;
19038;SDS011;9652;49.014;12.052;2024-03-02T05:03:46;22.00;;;12.63;;
19038;SDS011;9652;49.014;12.052;2024-03-02T05:06:14;22.03;;;12.50;;
19038;SDS011;9652;49.014;12.052;2024-03-02T05:08:41;22.90;;;13.73;;
19038;SDS011;9652;49.014;12.052;2024-03-02T05:11:11;26.97;;;14.20;;
19038;SDS011;9652;49.014;12.052;2024-03-02T05:13:56;21.03;;;12.13;;
19038;SDS011;9652;49.014;12.052;2024-03-02T05:16:23;25.07;;;15.33;;
19038;SDS011;9652;49.014;12.052;2024-03-02T05:18:50;22.43;;;13.47;;
19038;SDS011;9652;49.014;12.052;2024-03-02T05:21:17;21.20;;;13.17;;
19038;SDS011;9652;49.014;12.052;2024-03-02T05:23:44;23.43;;;14.33;;
19038;SDS011;9652;49.014;12.052;2024-03-02T05:26:12;25.23;;;13.80;;
19038;SDS011;9652;49.014;12.052;2024-03-02T05:28:39;22.40;;;13.67;;
19038;SDS011;9652;49.014;12.052;2024-03-02T05:31:09;22.33;;;13.57;;
19038;SDS011;9652;49.014;12.052;2024-03-02T05:33:37;24.53;;;13.77;;
19038;SDS011;9652;49.014;12.052;2024-03-02T05:36:04;20.30;;;12.37;;
19038;SDS011;9652;49.014;12.052;2024-03-02T05:38:31;21.17;;;12.33;;
19038;SDS011;9652;49.014;12.052;2024-03-02T05:41:01;24.70;;;14.37;;
19038;SDS011;9652;49.014;12.052;2024-03-02T05:43:30;23.57;;;13.87;;
19038;SDS011;9652;49.014;12.052;2024-03-02T05:45:57;21.93;;;13.17;;
19038;SDS011;9652;49.014;12.052;2024-03-02T05:48:24;19.87;;;13.20;;
19038;SDS011;9652;49.014;12.052;2024-03-02T05:50:51;24.87;;;13.67;;
19038;SDS011;9652;49.014;12.052;2024-03-02T05:53:18;21.33;;;12.70;;
19038;SDS011;9652;49.014;12.052;2024-03-02T05:55:45;22.50;;;13.30;;
19038;SDS011;9652;49.014;12.052;2024-03-02T05:58:12;22.13;;;12.13;;
19038;SDS011;9652;49.014;12.052;2024-03-02T06:00:54;21.13;;;12.57;;
19038;SDS011;9652;49.014;12.052;2024-03-02T06:03:22;25.90;;;13.53;;
19038;SDS011;9652;49.014;12.052;2024-03-02T06:05:49;23.73;;;12.87;;
19038;SDS011;9652;49.014;12.052;2024-03-02T06:08:16;22.87;;;13.83;;
19038;SDS011;9652;49.014;12.052;2024-03-02T06:10:44;26.83;;;14.27;;
19038;SDS011;9652;49.014;12.052;2024-03-02T06:13:11;21.17;;;13.17;;
19038;SDS011;9652;49.014;12.052;2024-03-02T06:15:38;22.80;;;13.10;;
19038;SDS011;9652;49.014;12.052;2024-03-02T06:18:06;27.17;;;15.43;;
19038;SDS011;9652;49.014;12.052;2024-03-02T06:20:34;29.07;;;14.77;;
19038;SDS011;9652;49.014;12.052;2024-03-02T06:23:02;25.47;;;14.47;;
19038;SDS011;9652;49.014;12.052;2024-03-02T06:25:30;26.33;;;15.20;;
19038;SDS011;9652;49.014;12.052;2024-03-02T06:27:57;22.60;;;13.60;;
19038;SDS011;9652;49.014;12.052;2024-03-02T06:30:24;27.03;;;14.70;;
19038;SDS011;9652;49.014;12.052;2024-03-02T06:32:52;27.47;;;15.27;;
19038;SDS011;9652;49.014;12.052;2024-03-02T06:35:20;26.90;;;14.47;;
19038;SDS011;9652;49.014;12.052;2024-03-02T06:37:47;25.47;;;13.70;;
19038;SDS011;9652;49.014;12.052;2024-03-02T06:40:15;25.73;;;14.40;;
19038;SDS011;9652;49.014;12.052;2024-03-02T06:42:42;26.03;;;14.10;;
19038;SDS011;9652;49.014;12.052;2024-03-02T06:45:09;24.97;;;14.23;;
19038;SDS011;9652;49.014;12.052;2024-03-02T06:47:36;25.87;;;15.10;;
19038;SDS011;9652;49.014;12.052;2024-03-02T06:50:03;24.97;;;14.47;;
19038;SDS011;9652;49.014;12.052;2024-03-02T06:52:33;26.37;;;15.03;;
19038;SDS011;9652;49.014;12.052;2024-03-02T06:55:00;26.47;;;15.27;;
19038;SDS011;9652;49.014;12.052;2024-03-02T06:57:29;23.30;;;14.47;;
19038;SDS011;9652;49.014;12.052;2024-03-02T06:59:56;28.97;;;15.60;;
19038;SDS011;9652;49.014;12.052;2024-03-02T07:02:23;27.80;;;14.63;;
19038;SDS011;9652;49.014;12.052;2024-03-02T07:04:52;33.70;;;16.70;;
19038;SDS011;9652;49.014;12.052;2024-03-02T07:07:19;28.40;;;16.20;;
19038;SDS011;9652;49.014;12.052;2024-03-02T07:09:47;28.10;;;14.53;;
19038;SDS011;9652;49.014;12.052;2024-03-02T07:12:14;31.40;;;15.27;;
19038;SDS011;9652;49.014;12.052;2024-03-02T07:14:41;30.83;;;16.13;;
19038;SDS011;9652;49.014;12.052;2024-03-02T07:17:43;29.10;;;14.63;;
19038;SDS011;9652;49.014;12.052;2024-03-02T07:20:11;30.10;;;17.10;;
19038;SDS011;9652;49.014;12.052;2024-03-02T07:22:38;28.47;;;15.70;;
19038;SDS011;9652;49.014;12.052;2024-03-02T07:25:07;33.50;;;17.13;;
19038;SDS011;9652;49.014;12.052;2024-03-02T07:27:34;30.53;;;15.80;;
19038;SDS011;9652;49.014;12.052;2024-03-02T07:30:01;30.67;;;16.07;;
19038;SDS011;9652;49.014;12.052;2024-03-02T07:32:29;32.70;;;15.47;;
19038;SDS011;9652;49.014;12.052;2024-03-02T07:34:56;34.53;;;16.27;;
19038;SDS011;9652;49.014;12.052;2024-03-02T07:37:23;28.80;;;15.30;;
19038;SDS011;9652;49.014;12.052;2024-03-02T07:39:50;30.07;;;15.20;;
19038;SDS011;9652;49.014;12.052;2024-03-02T07:42:19;32.40;;;16.10;;
19038;SDS011;9652;49.014;12.052;2024-03-02T07:44:46;34.07;;;17.20;;
19038;SDS011;9652;49.014;12.052;2024-03-02T07:47:13;31.90;;;15.50;;
19038;SDS011;9652;49.014;12.052;2024-03-02T07:49:40;29.63;;;16.17;;
19038;SDS011;9652;49.014;12.052;2024-03-02T07:52:07;35.27;;;17.00;;
19038;SDS011;9652;49.014;12.052;2024-03-02T07:54:34;32.83;;;16.57;;
19038;SDS011;9652;49.014;12.052;2024-03-02T07:57:01;27.47;;;15.33;;
19038;SDS011;9652;49.014;12.052;2024-03-02T07:59:30;30.60;;;15.77;;
19038;SDS011;9652;49.014;12.052;2024-03-02T08:01:58;30.37;;;16.17;;
19038;SDS011;9652;49.014;12.052;2024-03-02T08:04:25;31.23;;;16.27;;
19038;SDS011;9652;49.014;12.052;2024-03-02T08:06:53;31.70;;;16.80;;
19038;SDS011;9652;49.014;12.052;2024-03-02T08:09:20;29.00;;;15.63;;
19038;SDS011;9652;49.014;12.052;2024-03-02T08:11:47;28.23;;;15.87;;
19038;SDS011;9652;49.014;12.052;2024-03-02T08:14:14;29.63;;;15.97;;
19038;SDS011;9652;49.014;12.052;2024-03-02T08:16:43;27.80;;;14.63;;
19038;SDS011;9652;49.014;12.052;2024-03-02T08:19:11;30.33;;;16.70;;
19038;SDS011;9652;49.014;12.052;2024-03-02T08:21:38;29.83;;;15.57;;
19038;SDS011;9652;49.014;12.052;2024-03-02T08:24:06;30.27;;;16.53;;
19038;SDS011;9652;49.014;12.052;2024-03-02T08:26:33;28.60;;;16.20;;
19038;SDS011;9652;49.014;12.052;2024-03-02T08:29:01;33.17;;;16.30;;
19038;SDS011;9652;49.014;12.052;2024-03-02T08:31:28;31.17;;;16.17;;
19038;SDS011;9652;49.014;12.052;2024-03-02T08:33:57;26.67;;;15.30;;
19038;SDS011;9652;49.014;12.052;2024-03-02T08:36:24;25.80;;;15.27;;
19038;SDS011;9652;49.014;12.052;2024-03-02T08:38:51;25.40;;;14.90;;
19038;SDS011;9652;49.014;12.052;2024-03-02T08:41:19;30.70;;;16.53;;
19038;SDS011;9652;49.014;12.052;2024-03-02T08:43:46;31.87;;;15.40;;
19038;SDS011;9652;49.014;12.052;2024-03-02T08:46:13;27.13;;;15.20;;
19038;SDS011;9652;49.014;12.052;2024-03-02T08:48:40;26.60;;;15.53;;
19038;SDS011;9652;49.014;12.052;2024-03-02T08:51:09;27.27;;;15.60;;
19038;SDS011;9652;49.014;12.052;2024-03-02T08:53:36;27.23;;;15.53;;
19038;SDS011;9652;49.014;12.052;2024-03-02T08:56:04;28.97;;;15.73;;
19038;SDS011;9652;49.014;12.052;2024-03-02T08:58:31;29.33;;;14.50;;
19038;SDS011;9652;49.014;12.052;2024-03-02T09:00:59;28.30;;;14.93;;
19038;SDS011;9652;49.014;12.052;2024-03-02T09:03:26;25.63;;;14.63;;
19038;SDS011;9652;49.014;12.052;2024-03-02T09:05:53;24.83;;;14.27;;
19038;SDS011;9652;49.014;12.052;2024-03-02T09:08:21;26.13;;;14.93;;
19038;SDS011;9652;49.014;12.052;2024-03-02T09:10:49;25.67;;;15.00;;
19038;SDS011;9652;49.014;12.052;2024-03-02T09:13:16;27.47;;;15.00;;
19038;SDS011;9652;49.014;12.052;2024-03-02T09:15:43;28.67;;;15.10;;
19038;SDS011;9652;49.014;12.052;2024-03-02T09:18:10;27.00;;;14.60;;
19038;SDS011;9652;49.014;12.052;2024-03-02T09:20:38;27.90;;;14.43;;
19038;SDS011;9652;49.014;12.052;2024-03-02T09:23:05;23.73;;;14.00;;
19038;SDS011;9652;49.014;12.052;2024-03-02T09:25:34;27.27;;;14.10;;
19038;SDS011;9652;49.014;12.052;2024-03-02T09:28:02;26.37;;;15.03;;
19038;SDS011;9652;49.014;12.052;2024-03-02T09:30:29;27.03;;;14.93;;
19038;SDS011;9652;49.014;12.052;2024-03-02T09:32:56;24.73;;;14.40;;
19038;SDS011;9652;49.014;12.052;2024-03-02T09:35:23;22.20;;;13.10;;
19038;SDS011;9652;49.014;12.052;2024-03-02T09:37:51;28.80;;;14.50;;
19038;SDS011;9652;49.014;12.052;2024-03-02T09:40:20;24.20;;;13.63;;
19038;SDS011;9652;49.014;12.052;2024-03-02T09:42:49;27.40;;;14.47;;
19038;SDS011;9652;49.014;12.052;2024-03-02T09:45:18;24.27;;;14.73;;
19038;SDS011;9652;49.014;12.052;2024-03-02T09:47:50;27.87;;;14.47;;
19038;SDS011;9652;49.014;12.052;2024-03-02T09:50:17;28.60;;;15.20;;
19038;SDS011;9652;49.014;12.052;2024-03-02T09:52:44;28.03;;;15.40;;
19038;SDS011;9652;49.014;12.052;2024-03-02T09:55:15;23.53;;;13.77;;
19038;SDS011;9652;49.014;12.052;2024-03-02T09:57:44;23.77;;;14.43;;
19038;SDS011;9652;49.014;12.052;2024-03-02T10:00:15;22.93;;;13.50;;
19038;SDS011;9652;49.014;12.052;2024-03-02T10:02:43;22.77;;;13.27;;
19038;SDS011;9652;49.014;12.052;2024-03-02T10:05:11;23.93;;;13.83;;
19038;SDS011;9652;49.014;12.052;2024-03-02T10:07:38;24.13;;;13.77;;
19038;SDS011;9652;49.014;12.052;2024-03-02T10:10:14;23.37;;;13.53;;
19038;SDS011;9652;49.014;12.052;2024-03-02T10:12:42;24.20;;;13.27;;
19038;SDS011;9652;49.014;12.052;2024-03-02T10:15:09;26.33;;;14.30;;
19038;SDS011;9652;49.014;12.052;2024-03-02T10:17:38;24.13;;;13.37;;
19038;SDS011;9652;49.014;12.052;2024-03-02T10:20:21;22.73;;;12.80;;
19038;SDS011;9652;49.014;12.052;2024-03-02T10:22:49;22.90;;;12.90;;
19038;SDS011;9652;49.014;12.052;2024-03-02T10:25:28;22.27;;;12.73;;
19038;SDS011;9652;49.014;12.052;2024-03-02T10:27:57;21.20;;;12.90;;
19038;SDS011;9652;49.014;12.052;2024-03-02T10:30:25;24.97;;;13.97;;
19038;SDS011;9652;49.014;12.052;2024-03-02T10:32:54;22.80;;;12.97;;
19038;SDS011;9652;49.014;12.052;2024-03-02T10:35:23;21.30;;;12.20;;
19038;SDS011;9652;49.014;12.052;2024-03-02T10:37:51;22.00;;;12.80;;
19038;SDS011;9652;49.014;12.052;2024-03-02T10:40:21;21.57;;;12.00;;
19038;SDS011;9652;49.014;12.052;2024-03-02T10:42:49;23.17;;;13.60;;
19038;SDS011;9652;49.014;12.052;2024-03-02T10:45:17;21.03;;;11.67;;
19038;SDS011;9652;49.014;12.052;2024-03-02T10:47:47;20.00;;;11.37;;
19038;SDS011;9652;49.014;12.052;2024-03-02T10:50:17;22.00;;;12.03;;
19038;SDS011;9652;49.014;12.052;2024-03-02T10:52:44;20.93;;;12.10;;
19038;SDS011;9652;49.014;12.052;2024-03-02T10:55:12;19.87;;;12.03;;
19038;SDS011;9652;49.014;12.052;2024-03-02T10:57:45;22.67;;;11.57;;
19038;SDS011;9652;49.014;12.052;2024-03-02T11:00:19;24.67;;;11.70;;
19038;SDS011;9652;49.014;12.052;2024-03-02T11:02:50;20.00;;;10.93;;
19038;SDS011;9652;49.014;12.052;2024-03-02T11:05:26;20.43;;;10.90;;
19038;SDS011;9652;49.014;12.052;2024-03-02T11:08:01;20.23;;;11.73;;
19038;SDS011;9652;49.014;12.052;2024-03-02T11:10:34;21.90;;;11.53;;
19038;SDS011;9652;49.014;12.052;2024-03-02T11:13:05;18.73;;;10.63;;
19038;SDS011;9652;49.014;12.052;2024-03-02T11:15:35;18.33;;;9.83;;
19038;SDS011;9652;49.014;12.052;2024-03-02T11:18:03;19.70;;;11.40;;
19038;SDS011;9652;49.014;12.052;2024-03-02T11:20:35;17.83;;;10.03;;
19038;SDS011;9652;49.014;12.052;2024-03-02T11:23:05;18.10;;;10.00;;
19038;SDS011;9652;49.014;12.052;2024-03-02T11:25:32;20.60;;;11.13;;
19038;SDS011;9652;49.014;12.052;2024-03-02T11:28:00;18.27;;;10.80;;
19038;SDS011;9652;49.014;12.052;2024-03-02T11:33:18;16.73;;;10.43;;
19038;SDS011;9652;49.014;12.052;2024-03-02T11:35:56;18.93;;;10.47;;
19038;SDS011;9652;49.014;12.052;2024-03-02T11:38:27;18.40;;;10.27;;
19038;SDS011;9652;49.014;12.052;2024-03-02T11:40:57;18.60;;;10.87;;
19038;SDS011;9652;49.014;12.052;2024-03-02T11:43:27;17.80;;;10.87;;
19038;SDS011;9652;49.014;12.052;2024-03-02T11:45:58;17.73;;;10.33;;
19038;SDS011;9652;49.014;12.052;2024-03-02T11:48:29;18.53;;;10.13;;
19038;SDS011;9652;49.014;12.052;2024-03-02T11:50:59;17.03;;;11.10;;
19038;SDS011;9652;49.014;12.052;2024-03-02T11:53:27;15.87;;;10.43;;
19038;SDS011;9652;49.014;12.052;2024-03-02T11:55:57;16.03;;;9.53;;
19038;SDS011;9652;49.014;12.052;2024-03-02T11:58:26;17.77;;;10.40;;
19038;SDS011;9652;49.014;12.052;2024-03-02T12:00:54;17.77;;;10.63;;
19038;SDS011;9652;49.014;12.052;2024-03-02T12:03:23;18.97;;;11.37;;
19038;SDS011;9652;49.014;12.052;2024-03-02T12:05:52;17.63;;;10.20;;
19038;SDS011;9652;49.014;12.052;2024-03-02T12:08:21;17.30;;;10.00;;
19038;SDS011;9652;49.014;12.052;2024-03-02T12:10:58;16.00;;;9.90;;
19038;SDS011;9652;49.014;12.052;2024-03-02T12:13:26;18.07;;;10.93;;
19038;SDS011;9652;49.014;12.052;2024-03-02T12:15:54;18.07;;;10.83;;
19038;SDS011;9652;49.014;12.052;2024-03-02T12:18:22;17.57;;;10.20;;
19038;SDS011;9652;49.014;12.052;2024-03-02T12:20:50;19.23;;;10.27;;
19038;SDS011;9652;49.014;12.052;2024-03-02T12:23:22;17.03;;;10.60;;
19038;SDS011;9652;49.014;12.052;2024-03-02T12:25:50;18.33;;;10.47;;
19038;SDS011;9652;49.014;12.052;2024-03-02T12:28:17;16.87;;;9.93;;
19038;SDS011;9652;49.014;12.052;2024-03-02T12:30:45;15.53;;;10.10;;
19038;SDS011;9652;49.014;12.052;2024-03-02T12:33:14;16.57;;;9.37;;
19038;SDS011;9652;49.014;12.052;2024-03-02T12:35:41;18.67;;;10.20;;
19038;SDS011;9652;49.014;12.052;2024-03-02T12:38:09;18.83;;;11.20;;
19038;SDS011;9652;49.014;12.052;2024-03-02T12:40:38;16.10;;;9.97;;
19038;SDS011;9652;49.014;12.052;2024-03-02T12:43:05;17.80;;;10.07;;
19038;SDS011;9652;49.014;12.052;2024-03-02T12:45:33;18.03;;;10.67;;
19038;SDS011;9652;49.014;12.052;2024-03-02T12:48:00;18.30;;;11.37;;
19038;SDS011;9652;49.014;12.052;2024-03-02T12:50:28;17.20;;;10.10;;
19038;SDS011;9652;49.014;12.052;2024-03-02T12:52:55;15.50;;;9.37;;
19038;SDS011;9652;49.014;12.052;2024-03-02T12:55:23;17.07;;;10.37;;
19038;SDS011;9652;49.014;12.052;2024-03-02T12:57:52;17.00;;;9.67;;
19038;SDS011;9652;49.014;12.052;2024-03-02T13:00:20;18.60;;;10.47;;
19038;SDS011;9652;49.014;12.052;2024-03-02T13:02:49;15.33;;;9.50;;
19038;SDS011;9652;49.014;12.052;2024-03-02T13:05:16;15.43;;;9.43;;
19038;SDS011;9652;49.014;12.052;2024-03-02T13:07:44;15.53;;;9.37;;
19038;SDS011;9652;49.014;12.052;2024-03-02T13:10:13;15.23;;;10.10;;
19038;SDS011;9652;49.014;12.052;2024-03-02T13:12:40;16.57;;;9.93;;
19038;SDS011;9652;49.014;12.052;2024-03-02T13:15:09;15.63;;;9.53;;
19038;SDS011;9652;49.014;12.052;2024-03-02T13:17:36;16.30;;;9.87;;
19038;SDS011;9652;49.014;12.052;2024-03-02T13:20:05;19.00;;;10.10;;
19038;SDS011;9652;49.014;12.052;2024-03-02T13:22:35;16.47;;;9.23;;
19038;SDS011;9652;49.014;12.052;2024-03-02T13:25:03;15.80;;;9.47;;
19038;SDS011;9652;49.014;12.052;2024-03-02T13:27:33;14.53;;;9.37;;
19038;SDS011;9652;49.014;12.052;2024-03-02T13:30:01;17.40;;;9.63;;
19038;SDS011;9652;49.014;12.052;2024-03-02T13:32:32;16.17;;;10.63;;
19038;SDS011;9652;49.014;12.052;2024-03-02T13:34:59;18.77;;;10.40;;
19038;SDS011;9652;49.014;12.052;2024-03-02T13:37:28;17.20;;;10.73;;
19038;SDS011;9652;49.014;12.052;2024-03-02T13:39:55;16.87;;;10.53;;
19038;SDS011;9652;49.014;12.052;2024-03-02T13:42:22;15.93;;;9.83;;
19038;SDS011;9652;49.014;12.052;2024-03-02T13:44:49;16.83;;;9.73;;
19038;SDS011;9652;49.014;12.052;2024-03-02T13:47:17;16.80;;;9.33;;
19038;SDS011;9652;49.014;12.052;2024-03-02T13:49:47;12.43;;;8.70;;
19038;SDS011;9652;49.014;12.052;2024-03-02T13:52:15;17.97;;;9.73;;
19038;SDS011;9652;49.014;12.052;2024-03-02T13:54:43;13.60;;;8.63;;
19038;SDS011;9652;49.014;12.052;2024-03-02T13:57:11;16.70;;;9.57;;
19038;SDS011;9652;49.014;12.052;2024-03-02T13:59:38;16.93;;;10.13;;
19038;SDS011;9652;49.014;12.052;2024-03-02T14:02:07;13.90;;;9.40;;
19038;SDS011;9652;49.014;12.052;2024-03-02T14:04:35;17.00;;;9.53;;
19038;SDS011;9652;49.014;12.052;2024-03-02T14:07:05;16.77;;;9.10;;
19038;SDS011;9652;49.014;12.052;2024-03-02T14:09:33;17.27;;;9.90;;
19038;SDS011;9652;49.014;12.052;2024-03-02T14:12:00;14.77;;;9.37;;
19038;SDS011;9652;49.014;12.052;2024-03-02T14:14:28;18.33;;;10.57;;
19038;SDS011;9652;49.014;12.052;2024-03-02T14:16:55;19.60;;;10.23;;
19038;SDS011;9652;49.014;12.052;2024-03-02T14:19:25;15.73;;;9.83;;
19038;SDS011;9652;49.014;12.052;2024-03-02T14:21:53;17.77;;;9.60;;
19038;SDS011;9652;49.014;12.052;2024-03-02T14:24:21;16.40;;;9.10;;
19038;SDS011;9652;49.014;12.052;2024-03-02T14:26:50;15.53;;;9.10;;
19038;SDS011;9652;49.014;12.052;2024-03-02T14:29:18;15.43;;;9.40;;
19038;SDS011;9652;49.014;12.052;2024-03-02T14:31:45;16.03;;;9.33;;
19038;SDS011;9652;49.014;12.052;2024-03-02T14:34:13;13.43;;;8.63;;
19038;SDS011;9652;49.014;12.052;2024-03-02T14:36:40;14.80;;;8.63;;